sensor_id;sensor_type;location;lat;lon;timestamp;P1;durP1;ratioP1;P2;durP2;ratioP2
8161;SDS011;16778;48.154;15.094;2023-05-16T00:01:48;2.63;;;1.57;;
8161;SDS011;16778;48.154;15.094;2023-05-16T00:04:14;3.10;;;1.40;;
8161;SDS011;16778;48.154;15.094;2023-05-16T00:06:40;2.27;;;1.83;;
8161;SDS011;16778;48.154;15.094;2023-05-16T00:09:05;5.80;;;1.80;;
8161;SDS011;16778;48.154;15.094;2023-05-16T00:11:31;3.50;;;2.07;;
8161;SDS011;16778;48.154;15.094;2023-05-16T00:13:57;2.30;;;1.60;;
8161;SDS011;16778;48.154;15.094;2023-05-16T00:16:22;3.27;;;2.00;;
8161;SDS011;16778;48.154;15.094;2023-05-16T00:18:49;3.80;;;1.83;;
8161;SDS011;16778;48.154;15.094;2023-05-16T00:21:17;2.70;;;1.90;;
8161;SDS011;16778;48.154;15.094;2023-05-16T00:23:43;3.40;;;2.30;;
8161;SDS011;16778;48.154;15.094;2023-05-16T00:26:08;3.20;;;2.00;;
8161;SDS011;16778;48.154;15.094;2023-05-16T00:28:34;2.07;;;1.67;;
8161;SDS011;16778;48.154;15.094;2023-05-16T00:31:00;3.03;;;2.00;;
8161;SDS011;16778;48.154;15.094;2023-05-16T00:33:25;2.03;;;1.50;;
8161;SDS011;16778;48.154;15.094;2023-05-16T00:35:51;2.13;;;1.77;;
8161;SDS011;16778;48.154;15.094;2023-05-16T00:38:17;3.37;;;2.20;;
8161;SDS011;16778;48.154;15.094;2023-05-16T00:40:43;3.27;;;2.20;;
8161;SDS011;16778;48.154;15.094;2023-05-16T00:43:09;2.83;;;2.00;;
8161;SDS011;16778;48.154;15.094;2023-05-16T00:45:35;2.73;;;1.83;;
8161;SDS011;16778;48.154;15.094;2023-05-16T00:48:00;3.57;;;1.77;;
8161;SDS011;16778;48.154;15.094;2023-05-16T00:50:26;3.10;;;1.93;;
8161;SDS011;16778;48.154;15.094;2023-05-16T00:52:52;2.13;;;1.50;;
8161;SDS011;16778;48.154;15.094;2023-05-16T00:55:17;2.50;;;1.80;;
8161;SDS011;16778;48.154;15.094;2023-05-16T00:57:43;3.30;;;1.93;;
8161;SDS011;16778;48.154;15.094;2023-05-16T01:00:09;2.40;;;1.70;;
8161;SDS011;16778;48.154;15.094;2023-05-16T01:02:35;3.03;;;1.90;;
8161;SDS011;16778;48.154;15.094;2023-05-16T01:05:01;3.20;;;1.70;;
8161;SDS011;16778;48.154;15.094;2023-05-16T01:07:29;2.73;;;1.97;;
8161;SDS011;16778;48.154;15.094;2023-05-16T01:09:56;3.10;;;1.73;;
8161;SDS011;16778;48.154;15.094;2023-05-16T01:12:36;2.63;;;2.00;;
8161;SDS011;16778;48.154;15.094;2023-05-16T01:15:34;2.87;;;1.87;;
8161;SDS011;16778;48.154;15.094;2023-05-16T01:27:01;2.97;;;1.63;;
8161;SDS011;16778;48.154;15.094;2023-05-16T01:29:29;2.07;;;1.60;;
8161;SDS011;16778;48.154;15.094;2023-05-16T01:31:55;2.30;;;1.87;;
8161;SDS011;16778;48.154;15.094;2023-05-16T01:34:22;3.70;;;2.40;;
8161;SDS011;16778;48.154;15.094;2023-05-16T01:37:31;2.17;;;1.77;;
8161;SDS011;16778;48.154;15.094;2023-05-16T01:42:34;1.47;;;1.33;;
8161;SDS011;16778;48.154;15.094;2023-05-16T01:47:35;5.43;;;1.60;;
8161;SDS011;16778;48.154;15.094;2023-05-16T01:52:34;3.27;;;1.43;;
8161;SDS011;16778;48.154;15.094;2023-05-16T01:55:10;1.60;;;1.40;;
8161;SDS011;16778;48.154;15.094;2023-05-16T01:57:43;2.23;;;1.60;;
8161;SDS011;16778;48.154;15.094;2023-05-16T02:00:10;2.33;;;1.70;;
8161;SDS011;16778;48.154;15.094;2023-05-16T02:02:36;2.33;;;1.47;;
8161;SDS011;16778;48.154;15.094;2023-05-16T02:05:01;1.77;;;1.37;;
8161;SDS011;16778;48.154;15.094;2023-05-16T02:07:27;4.20;;;1.53;;
8161;SDS011;16778;48.154;15.094;2023-05-16T02:09:52;2.27;;;1.60;;
8161;SDS011;16778;48.154;15.094;2023-05-16T02:12:18;2.57;;;1.63;;
8161;SDS011;16778;48.154;15.094;2023-05-16T02:14:44;1.50;;;1.33;;
8161;SDS011;16778;48.154;15.094;2023-05-16T02:17:10;1.90;;;1.60;;
8161;SDS011;16778;48.154;15.094;2023-05-16T02:19:35;1.87;;;1.67;;
8161;SDS011;16778;48.154;15.094;2023-05-16T02:22:01;2.03;;;1.53;;
8161;SDS011;16778;48.154;15.094;2023-05-16T02:24:26;2.50;;;1.67;;
8161;SDS011;16778;48.154;15.094;2023-05-16T02:26:52;1.63;;;1.20;;
8161;SDS011;16778;48.154;15.094;2023-05-16T02:29:18;2.67;;;1.50;;
8161;SDS011;16778;48.154;15.094;2023-05-16T02:31:43;2.37;;;1.70;;
8161;SDS011;16778;48.154;15.094;2023-05-16T02:34:09;2.77;;;1.60;;
8161;SDS011;16778;48.154;15.094;2023-05-16T02:36:35;2.23;;;1.40;;
8161;SDS011;16778;48.154;15.094;2023-05-16T02:39:01;3.10;;;1.77;;
8161;SDS011;16778;48.154;15.094;2023-05-16T02:41:28;2.50;;;2.00;;
8161;SDS011;16778;48.154;15.094;2023-05-16T02:43:54;2.20;;;1.77;;
8161;SDS011;16778;48.154;15.094;2023-05-16T02:46:27;3.53;;;1.93;;
8161;SDS011;16778;48.154;15.094;2023-05-16T02:48:54;2.43;;;1.70;;
8161;SDS011;16778;48.154;15.094;2023-05-16T02:51:20;4.93;;;2.93;;
8161;SDS011;16778;48.154;15.094;2023-05-16T02:53:47;3.07;;;1.90;;
8161;SDS011;16778;48.154;15.094;2023-05-16T02:56:13;1.97;;;1.60;;
8161;SDS011;16778;48.154;15.094;2023-05-16T02:58:39;3.03;;;2.43;;
8161;SDS011;16778;48.154;15.094;2023-05-16T03:01:06;3.30;;;2.70;;
8161;SDS011;16778;48.154;15.094;2023-05-16T03:03:32;2.83;;;1.90;;
8161;SDS011;16778;48.154;15.094;2023-05-16T03:05:59;3.17;;;2.23;;
8161;SDS011;16778;48.154;15.094;2023-05-16T03:08:25;2.17;;;1.73;;
8161;SDS011;16778;48.154;15.094;2023-05-16T03:10:51;3.07;;;1.77;;
8161;SDS011;16778;48.154;15.094;2023-05-16T03:13:16;2.57;;;1.97;;
8161;SDS011;16778;48.154;15.094;2023-05-16T03:15:42;2.23;;;1.63;;
8161;SDS011;16778;48.154;15.094;2023-05-16T03:18:08;3.03;;;1.77;;
8161;SDS011;16778;48.154;15.094;2023-05-16T03:20:33;3.07;;;1.70;;
8161;SDS011;16778;48.154;15.094;2023-05-16T03:22:59;2.33;;;1.63;;
8161;SDS011;16778;48.154;15.094;2023-05-16T03:25:25;5.77;;;2.20;;
8161;SDS011;16778;48.154;15.094;2023-05-16T03:27:50;2.63;;;2.03;;
8161;SDS011;16778;48.154;15.094;2023-05-16T03:30:16;3.17;;;2.03;;
8161;SDS011;16778;48.154;15.094;2023-05-16T03:32:44;2.13;;;1.80;;
8161;SDS011;16778;48.154;15.094;2023-05-16T03:35:10;2.97;;;1.80;;
8161;SDS011;16778;48.154;15.094;2023-05-16T03:37:36;3.00;;;2.00;;
8161;SDS011;16778;48.154;15.094;2023-05-16T03:40:02;2.70;;;1.87;;
8161;SDS011;16778;48.154;15.094;2023-05-16T03:42:31;2.27;;;1.80;;
8161;SDS011;16778;48.154;15.094;2023-05-16T03:44:56;2.23;;;1.80;;
8161;SDS011;16778;48.154;15.094;2023-05-16T03:47:22;3.33;;;1.97;;
8161;SDS011;16778;48.154;15.094;2023-05-16T03:49:48;2.37;;;1.83;;
8161;SDS011;16778;48.154;15.094;2023-05-16T03:52:13;2.47;;;1.70;;
8161;SDS011;16778;48.154;15.094;2023-05-16T03:54:39;3.53;;;2.20;;
8161;SDS011;16778;48.154;15.094;2023-05-16T03:57:05;3.50;;;1.97;;
8161;SDS011;16778;48.154;15.094;2023-05-16T03:59:31;2.03;;;1.83;;
8161;SDS011;16778;48.154;15.094;2023-05-16T04:01:58;3.33;;;1.90;;
8161;SDS011;16778;48.154;15.094;2023-05-16T04:04:24;2.87;;;1.93;;
8161;SDS011;16778;48.154;15.094;2023-05-16T04:06:50;2.87;;;2.27;;
8161;SDS011;16778;48.154;15.094;2023-05-16T04:09:15;2.27;;;1.80;;
8161;SDS011;16778;48.154;15.094;2023-05-16T04:11:41;6.13;;;2.77;;
8161;SDS011;16778;48.154;15.094;2023-05-16T04:14:07;3.87;;;2.40;;
8161;SDS011;16778;48.154;15.094;2023-05-16T04:16:33;4.07;;;2.30;;
8161;SDS011;16778;48.154;15.094;2023-05-16T04:18:58;4.20;;;3.00;;
8161;SDS011;16778;48.154;15.094;2023-05-16T04:21:24;5.47;;;3.13;;
8161;SDS011;16778;48.154;15.094;2023-05-16T04:23:49;4.13;;;2.90;;
8161;SDS011;16778;48.154;15.094;2023-05-16T04:26:15;5.13;;;2.73;;
8161;SDS011;16778;48.154;15.094;2023-05-16T04:28:41;6.37;;;2.87;;
8161;SDS011;16778;48.154;15.094;2023-05-16T04:31:07;5.67;;;3.40;;
8161;SDS011;16778;48.154;15.094;2023-05-16T04:33:32;4.47;;;3.30;;
8161;SDS011;16778;48.154;15.094;2023-05-16T04:35:58;4.47;;;3.00;;
8161;SDS011;16778;48.154;15.094;2023-05-16T04:38:24;6.37;;;2.97;;
8161;SDS011;16778;48.154;15.094;2023-05-16T04:40:50;5.63;;;3.00;;
8161;SDS011;16778;48.154;15.094;2023-05-16T04:43:16;4.90;;;3.20;;
8161;SDS011;16778;48.154;15.094;2023-05-16T04:45:42;6.17;;;3.53;;
8161;SDS011;16778;48.154;15.094;2023-05-16T04:48:08;4.17;;;2.50;;
8161;SDS011;16778;48.154;15.094;2023-05-16T04:50:35;4.20;;;2.73;;
8161;SDS011;16778;48.154;15.094;2023-05-16T04:53:01;2.73;;;2.27;;
8161;SDS011;16778;48.154;15.094;2023-05-16T04:55:26;5.40;;;3.07;;
8161;SDS011;16778;48.154;15.094;2023-05-16T04:57:52;4.20;;;2.70;;
8161;SDS011;16778;48.154;15.094;2023-05-16T05:00:18;5.83;;;2.60;;
8161;SDS011;16778;48.154;15.094;2023-05-16T05:02:44;4.33;;;3.27;;
8161;SDS011;16778;48.154;15.094;2023-05-16T05:05:09;5.17;;;2.67;;
8161;SDS011;16778;48.154;15.094;2023-05-16T05:07:35;6.70;;;2.93;;
8161;SDS011;16778;48.154;15.094;2023-05-16T05:10:01;4.20;;;2.97;;
8161;SDS011;16778;48.154;15.094;2023-05-16T05:12:27;6.73;;;3.50;;
8161;SDS011;16778;48.154;15.094;2023-05-16T05:14:52;5.13;;;2.90;;
8161;SDS011;16778;48.154;15.094;2023-05-16T05:17:19;6.20;;;3.20;;
8161;SDS011;16778;48.154;15.094;2023-05-16T05:19:45;5.60;;;3.37;;
8161;SDS011;16778;48.154;15.094;2023-05-16T05:22:12;5.03;;;3.30;;
8161;SDS011;16778;48.154;15.094;2023-05-16T05:24:38;6.10;;;3.50;;
8161;SDS011;16778;48.154;15.094;2023-05-16T05:27:04;5.87;;;3.73;;
8161;SDS011;16778;48.154;15.094;2023-05-16T05:29:29;5.07;;;3.60;;
8161;SDS011;16778;48.154;15.094;2023-05-16T05:31:55;5.63;;;3.23;;
8161;SDS011;16778;48.154;15.094;2023-05-16T05:34:21;4.10;;;2.70;;
8161;SDS011;16778;48.154;15.094;2023-05-16T05:36:46;5.93;;;3.57;;
8161;SDS011;16778;48.154;15.094;2023-05-16T05:39:12;6.87;;;3.73;;
8161;SDS011;16778;48.154;15.094;2023-05-16T05:41:38;5.47;;;3.37;;
8161;SDS011;16778;48.154;15.094;2023-05-16T05:44:04;6.13;;;3.60;;
8161;SDS011;16778;48.154;15.094;2023-05-16T05:46:30;6.47;;;3.60;;
8161;SDS011;16778;48.154;15.094;2023-05-16T05:48:56;6.50;;;3.33;;
8161;SDS011;16778;48.154;15.094;2023-05-16T05:51:22;5.53;;;3.33;;
8161;SDS011;16778;48.154;15.094;2023-05-16T05:53:48;9.77;;;3.17;;
8161;SDS011;16778;48.154;15.094;2023-05-16T05:56:14;3.70;;;2.80;;
8161;SDS011;16778;48.154;15.094;2023-05-16T05:58:40;6.00;;;2.97;;
8161;SDS011;16778;48.154;15.094;2023-05-16T06:01:06;3.93;;;2.67;;
8161;SDS011;16778;48.154;15.094;2023-05-16T06:03:32;3.07;;;2.13;;
8161;SDS011;16778;48.154;15.094;2023-05-16T06:05:57;4.43;;;3.10;;
8161;SDS011;16778;48.154;15.094;2023-05-16T06:08:23;4.63;;;3.30;;
8161;SDS011;16778;48.154;15.094;2023-05-16T06:10:49;5.57;;;3.00;;
8161;SDS011;16778;48.154;15.094;2023-05-16T06:13:14;5.40;;;3.20;;
8161;SDS011;16778;48.154;15.094;2023-05-16T06:15:40;7.33;;;3.83;;
8161;SDS011;16778;48.154;15.094;2023-05-16T06:18:06;6.00;;;3.20;;
8161;SDS011;16778;48.154;15.094;2023-05-16T06:20:31;5.80;;;3.50;;
8161;SDS011;16778;48.154;15.094;2023-05-16T06:22:57;4.60;;;2.63;;
8161;SDS011;16778;48.154;15.094;2023-05-16T06:25:22;5.23;;;2.80;;
8161;SDS011;16778;48.154;15.094;2023-05-16T06:27:48;6.13;;;3.33;;
8161;SDS011;16778;48.154;15.094;2023-05-16T06:30:14;5.33;;;3.00;;
8161;SDS011;16778;48.154;15.094;2023-05-16T06:32:40;5.50;;;3.37;;
8161;SDS011;16778;48.154;15.094;2023-05-16T06:35:06;6.70;;;3.63;;
8161;SDS011;16778;48.154;15.094;2023-05-16T06:37:33;5.80;;;3.47;;
8161;SDS011;16778;48.154;15.094;2023-05-16T06:39:58;4.97;;;3.27;;
8161;SDS011;16778;48.154;15.094;2023-05-16T06:42:24;6.97;;;3.13;;
8161;SDS011;16778;48.154;15.094;2023-05-16T06:44:50;4.67;;;3.20;;
8161;SDS011;16778;48.154;15.094;2023-05-16T06:47:15;6.93;;;3.17;;
8161;SDS011;16778;48.154;15.094;2023-05-16T06:49:41;4.50;;;2.83;;
8161;SDS011;16778;48.154;15.094;2023-05-16T06:52:06;5.23;;;2.53;;
8161;SDS011;16778;48.154;15.094;2023-05-16T06:54:32;5.40;;;2.83;;
8161;SDS011;16778;48.154;15.094;2023-05-16T06:56:58;5.07;;;2.80;;
8161;SDS011;16778;48.154;15.094;2023-05-16T06:59:24;6.37;;;3.10;;
8161;SDS011;16778;48.154;15.094;2023-05-16T07:01:49;3.70;;;2.70;;
8161;SDS011;16778;48.154;15.094;2023-05-16T07:04:15;3.90;;;2.83;;
8161;SDS011;16778;48.154;15.094;2023-05-16T07:06:40;4.20;;;2.27;;
8161;SDS011;16778;48.154;15.094;2023-05-16T07:09:06;4.20;;;2.67;;
8161;SDS011;16778;48.154;15.094;2023-05-16T07:11:32;3.13;;;2.40;;
8161;SDS011;16778;48.154;15.094;2023-05-16T07:13:57;4.53;;;2.53;;
8161;SDS011;16778;48.154;15.094;2023-05-16T07:16:23;5.33;;;2.97;;
8161;SDS011;16778;48.154;15.094;2023-05-16T07:18:52;4.77;;;3.30;;
8161;SDS011;16778;48.154;15.094;2023-05-16T07:21:18;5.83;;;2.77;;
8161;SDS011;16778;48.154;15.094;2023-05-16T07:23:43;4.67;;;1.83;;
8161;SDS011;16778;48.154;15.094;2023-05-16T07:26:09;3.23;;;2.73;;
8161;SDS011;16778;48.154;15.094;2023-05-16T07:28:35;2.70;;;2.20;;
8161;SDS011;16778;48.154;15.094;2023-05-16T07:31:00;4.00;;;2.20;;
8161;SDS011;16778;48.154;15.094;2023-05-16T07:33:26;4.27;;;2.60;;
8161;SDS011;16778;48.154;15.094;2023-05-16T07:35:52;5.07;;;2.50;;
8161;SDS011;16778;48.154;15.094;2023-05-16T07:38:19;2.80;;;1.90;;
8161;SDS011;16778;48.154;15.094;2023-05-16T07:40:45;4.63;;;2.27;;
8161;SDS011;16778;48.154;15.094;2023-05-16T07:43:11;3.83;;;2.20;;
8161;SDS011;16778;48.154;15.094;2023-05-16T07:45:36;5.17;;;2.73;;
8161;SDS011;16778;48.154;15.094;2023-05-16T07:48:02;3.60;;;2.53;;
8161;SDS011;16778;48.154;15.094;2023-05-16T07:50:28;5.30;;;2.67;;
8161;SDS011;16778;48.154;15.094;2023-05-16T07:52:53;4.70;;;2.73;;
8161;SDS011;16778;48.154;15.094;2023-05-16T07:55:19;3.83;;;2.87;;
8161;SDS011;16778;48.154;15.094;2023-05-16T07:57:46;5.30;;;2.70;;
8161;SDS011;16778;48.154;15.094;2023-05-16T08:00:12;3.83;;;2.77;;
8161;SDS011;16778;48.154;15.094;2023-05-16T08:02:38;4.83;;;3.17;;
8161;SDS011;16778;48.154;15.094;2023-05-16T08:05:05;3.40;;;2.47;;
8161;SDS011;16778;48.154;15.094;2023-05-16T08:07:31;4.40;;;2.57;;
8161;SDS011;16778;48.154;15.094;2023-05-16T08:09:57;4.47;;;2.60;;
8161;SDS011;16778;48.154;15.094;2023-05-16T08:12:23;4.07;;;2.83;;
8161;SDS011;16778;48.154;15.094;2023-05-16T08:14:49;3.93;;;2.97;;
8161;SDS011;16778;48.154;15.094;2023-05-16T08:17:14;4.37;;;3.10;;
8161;SDS011;16778;48.154;15.094;2023-05-16T08:19:40;3.37;;;2.20;;
8161;SDS011;16778;48.154;15.094;2023-05-16T08:22:06;3.30;;;2.20;;
8161;SDS011;16778;48.154;15.094;2023-05-16T08:24:33;3.73;;;2.20;;
8161;SDS011;16778;48.154;15.094;2023-05-16T08:26:59;3.40;;;2.77;;
8161;SDS011;16778;48.154;15.094;2023-05-16T08:29:25;3.80;;;3.00;;
8161;SDS011;16778;48.154;15.094;2023-05-16T08:31:51;4.40;;;2.83;;
8161;SDS011;16778;48.154;15.094;2023-05-16T08:34:16;3.97;;;2.53;;
8161;SDS011;16778;48.154;15.094;2023-05-16T08:36:42;2.83;;;2.10;;
8161;SDS011;16778;48.154;15.094;2023-05-16T08:39:08;3.67;;;2.57;;
8161;SDS011;16778;48.154;15.094;2023-05-16T08:41:35;4.83;;;2.90;;
8161;SDS011;16778;48.154;15.094;2023-05-16T08:44:01;4.17;;;2.77;;
8161;SDS011;16778;48.154;15.094;2023-05-16T08:46:28;3.20;;;2.50;;
8161;SDS011;16778;48.154;15.094;2023-05-16T08:48:54;7.67;;;2.83;;
8161;SDS011;16778;48.154;15.094;2023-05-16T08:51:26;3.63;;;2.60;;
8161;SDS011;16778;48.154;15.094;2023-05-16T08:54:00;3.83;;;2.50;;
8161;SDS011;16778;48.154;15.094;2023-05-16T08:56:28;3.77;;;2.53;;
8161;SDS011;16778;48.154;15.094;2023-05-16T08:58:54;5.57;;;2.93;;
8161;SDS011;16778;48.154;15.094;2023-05-16T09:01:21;4.33;;;2.77;;
8161;SDS011;16778;48.154;15.094;2023-05-16T09:03:50;2.73;;;2.13;;
8161;SDS011;16778;48.154;15.094;2023-05-16T09:06:16;3.83;;;2.87;;
8161;SDS011;16778;48.154;15.094;2023-05-16T09:08:42;4.67;;;2.97;;
8161;SDS011;16778;48.154;15.094;2023-05-16T09:11:08;4.30;;;2.63;;
8161;SDS011;16778;48.154;15.094;2023-05-16T09:13:34;5.57;;;3.30;;
8161;SDS011;16778;48.154;15.094;2023-05-16T09:16:09;3.93;;;3.10;;
8161;SDS011;16778;48.154;15.094;2023-05-16T09:18:37;4.87;;;3.07;;
8161;SDS011;16778;48.154;15.094;2023-05-16T09:21:03;5.67;;;3.17;;
8161;SDS011;16778;48.154;15.094;2023-05-16T09:23:30;4.93;;;3.20;;
8161;SDS011;16778;48.154;15.094;2023-05-16T09:25:57;4.90;;;3.47;;
8161;SDS011;16778;48.154;15.094;2023-05-16T09:28:24;6.43;;;3.50;;
8161;SDS011;16778;48.154;15.094;2023-05-16T09:30:50;4.33;;;3.13;;
8161;SDS011;16778;48.154;15.094;2023-05-16T09:33:16;4.03;;;3.17;;
8161;SDS011;16778;48.154;15.094;2023-05-16T09:35:42;4.87;;;3.50;;
8161;SDS011;16778;48.154;15.094;2023-05-16T09:38:14;4.40;;;3.03;;
8161;SDS011;16778;48.154;15.094;2023-05-16T09:40:41;8.97;;;3.50;;
8161;SDS011;16778;48.154;15.094;2023-05-16T09:43:07;6.27;;;3.67;;
8161;SDS011;16778;48.154;15.094;2023-05-16T09:45:33;5.70;;;4.20;;
8161;SDS011;16778;48.154;15.094;2023-05-16T09:48:04;5.40;;;2.90;;
8161;SDS011;16778;48.154;15.094;2023-05-16T09:50:33;4.00;;;3.13;;
8161;SDS011;16778;48.154;15.094;2023-05-16T09:53:01;4.10;;;3.30;;
8161;SDS011;16778;48.154;15.094;2023-05-16T09:55:27;4.87;;;3.40;;
8161;SDS011;16778;48.154;15.094;2023-05-16T09:57:53;5.03;;;3.33;;
8161;SDS011;16778;48.154;15.094;2023-05-16T10:00:18;4.97;;;2.93;;
8161;SDS011;16778;48.154;15.094;2023-05-16T10:02:44;8.07;;;3.07;;
8161;SDS011;16778;48.154;15.094;2023-05-16T10:05:10;5.00;;;3.60;;
8161;SDS011;16778;48.154;15.094;2023-05-16T10:07:36;6.00;;;3.33;;
8161;SDS011;16778;48.154;15.094;2023-05-16T10:10:05;4.50;;;2.80;;
8161;SDS011;16778;48.154;15.094;2023-05-16T10:12:32;5.07;;;3.07;;
8161;SDS011;16778;48.154;15.094;2023-05-16T10:15:02;5.20;;;2.57;;
8161;SDS011;16778;48.154;15.094;2023-05-16T10:17:29;6.03;;;3.30;;
8161;SDS011;16778;48.154;15.094;2023-05-16T10:19:59;7.00;;;4.00;;
8161;SDS011;16778;48.154;15.094;2023-05-16T10:22:28;7.30;;;4.23;;
8161;SDS011;16778;48.154;15.094;2023-05-16T10:24:57;5.97;;;4.13;;
8161;SDS011;16778;48.154;15.094;2023-05-16T10:27:25;7.00;;;4.03;;
8161;SDS011;16778;48.154;15.094;2023-05-16T10:29:50;5.17;;;3.43;;
8161;SDS011;16778;48.154;15.094;2023-05-16T10:32:16;5.10;;;3.27;;
8161;SDS011;16778;48.154;15.094;2023-05-16T10:34:43;4.37;;;2.97;;
8161;SDS011;16778;48.154;15.094;2023-05-16T10:37:10;13.30;;;3.47;;
8161;SDS011;16778;48.154;15.094;2023-05-16T10:39:36;6.10;;;3.67;;
8161;SDS011;16778;48.154;15.094;2023-05-16T10:42:02;5.07;;;3.17;;
8161;SDS011;16778;48.154;15.094;2023-05-16T10:44:30;6.03;;;3.83;;
8161;SDS011;16778;48.154;15.094;2023-05-16T10:46:57;2.80;;;2.57;;
8161;SDS011;16778;48.154;15.094;2023-05-16T10:49:24;4.63;;;3.17;;
8161;SDS011;16778;48.154;15.094;2023-05-16T10:52:10;4.07;;;3.00;;
8161;SDS011;16778;48.154;15.094;2023-05-16T10:54:41;4.70;;;3.43;;
8161;SDS011;16778;48.154;15.094;2023-05-16T10:57:11;5.77;;;3.33;;
8161;SDS011;16778;48.154;15.094;2023-05-16T10:59:42;6.53;;;3.30;;
8161;SDS011;16778;48.154;15.094;2023-05-16T11:02:22;6.40;;;3.83;;
8161;SDS011;16778;48.154;15.094;2023-05-16T11:04:53;5.03;;;3.63;;
8161;SDS011;16778;48.154;15.094;2023-05-16T11:07:21;4.67;;;3.13;;
8161;SDS011;16778;48.154;15.094;2023-05-16T11:10:04;6.43;;;3.37;;
8161;SDS011;16778;48.154;15.094;2023-05-16T11:12:35;4.10;;;2.90;;
8161;SDS011;16778;48.154;15.094;2023-05-16T11:17:50;3.93;;;2.40;;
8161;SDS011;16778;48.154;15.094;2023-05-16T11:20:31;3.90;;;2.97;;
8161;SDS011;16778;48.154;15.094;2023-05-16T11:25:45;7.13;;;2.67;;
8161;SDS011;16778;48.154;15.094;2023-05-16T11:28:18;4.53;;;3.10;;
8161;SDS011;16778;48.154;15.094;2023-05-16T11:30:49;4.17;;;2.60;;
8161;SDS011;16778;48.154;15.094;2023-05-16T11:33:16;4.73;;;3.00;;
8161;SDS011;16778;48.154;15.094;2023-05-16T11:35:42;3.37;;;2.67;;
8161;SDS011;16778;48.154;15.094;2023-05-16T11:38:14;4.20;;;2.70;;
8161;SDS011;16778;48.154;15.094;2023-05-16T11:40:43;3.73;;;2.93;;
8161;SDS011;16778;48.154;15.094;2023-05-16T11:43:09;4.27;;;3.03;;
8161;SDS011;16778;48.154;15.094;2023-05-16T11:45:36;3.47;;;3.00;;
8161;SDS011;16778;48.154;15.094;2023-05-16T11:48:02;4.27;;;3.27;;
8161;SDS011;16778;48.154;15.094;2023-05-16T11:50:28;6.90;;;3.70;;
8161;SDS011;16778;48.154;15.094;2023-05-16T11:52:55;5.27;;;2.90;;
8161;SDS011;16778;48.154;15.094;2023-05-16T11:55:24;4.87;;;3.23;;
8161;SDS011;16778;48.154;15.094;2023-05-16T11:57:56;3.60;;;2.87;;
8161;SDS011;16778;48.154;15.094;2023-05-16T12:00:22;6.50;;;3.03;;
8161;SDS011;16778;48.154;15.094;2023-05-16T12:02:50;4.03;;;3.10;;
8161;SDS011;16778;48.154;15.094;2023-05-16T12:05:17;4.53;;;2.87;;
8161;SDS011;16778;48.154;15.094;2023-05-16T12:07:45;3.67;;;3.10;;
8161;SDS011;16778;48.154;15.094;2023-05-16T12:10:12;4.30;;;2.83;;
8161;SDS011;16778;48.154;15.094;2023-05-16T12:12:39;5.00;;;2.90;;
8161;SDS011;16778;48.154;15.094;2023-05-16T12:15:07;4.70;;;3.07;;
8161;SDS011;16778;48.154;15.094;2023-05-16T12:17:33;4.77;;;3.27;;
8161;SDS011;16778;48.154;15.094;2023-05-16T12:20:00;4.63;;;3.07;;
8161;SDS011;16778;48.154;15.094;2023-05-16T12:22:26;4.63;;;3.20;;
8161;SDS011;16778;48.154;15.094;2023-05-16T12:24:52;4.37;;;3.23;;
8161;SDS011;16778;48.154;15.094;2023-05-16T12:27:21;4.30;;;3.00;;
8161;SDS011;16778;48.154;15.094;2023-05-16T12:29:47;6.43;;;2.90;;
8161;SDS011;16778;48.154;15.094;2023-05-16T12:32:16;5.43;;;3.27;;
8161;SDS011;16778;48.154;15.094;2023-05-16T12:34:47;6.07;;;3.27;;
8161;SDS011;16778;48.154;15.094;2023-05-16T12:37:15;5.73;;;3.40;;
8161;SDS011;16778;48.154;15.094;2023-05-16T12:39:40;4.00;;;3.20;;
8161;SDS011;16778;48.154;15.094;2023-05-16T12:42:06;4.63;;;3.10;;
8161;SDS011;16778;48.154;15.094;2023-05-16T12:44:33;6.10;;;3.83;;
8161;SDS011;16778;48.154;15.094;2023-05-16T12:47:00;4.73;;;3.00;;
8161;SDS011;16778;48.154;15.094;2023-05-16T12:49:26;4.83;;;3.57;;
8161;SDS011;16778;48.154;15.094;2023-05-16T12:51:53;4.13;;;3.13;;
8161;SDS011;16778;48.154;15.094;2023-05-16T12:54:20;5.13;;;3.10;;
8161;SDS011;16778;48.154;15.094;2023-05-16T12:56:49;4.47;;;3.00;;
8161;SDS011;16778;48.154;15.094;2023-05-16T12:59:15;5.93;;;3.10;;
8161;SDS011;16778;48.154;15.094;2023-05-16T13:01:40;3.93;;;3.13;;
8161;SDS011;16778;48.154;15.094;2023-05-16T13:04:06;4.53;;;3.43;;
8161;SDS011;16778;48.154;15.094;2023-05-16T13:06:32;4.43;;;3.23;;
8161;SDS011;16778;48.154;15.094;2023-05-16T13:08:58;6.17;;;3.60;;
8161;SDS011;16778;48.154;15.094;2023-05-16T13:11:23;4.53;;;3.00;;
8161;SDS011;16778;48.154;15.094;2023-05-16T13:13:50;9.57;;;3.37;;
8161;SDS011;16778;48.154;15.094;2023-05-16T13:16:16;3.40;;;2.83;;
8161;SDS011;16778;48.154;15.094;2023-05-16T13:18:42;6.60;;;3.27;;
8161;SDS011;16778;48.154;15.094;2023-05-16T13:21:07;4.40;;;3.20;;
8161;SDS011;16778;48.154;15.094;2023-05-16T13:23:33;4.50;;;3.37;;
8161;SDS011;16778;48.154;15.094;2023-05-16T13:25:58;5.10;;;3.00;;
8161;SDS011;16778;48.154;15.094;2023-05-16T13:28:24;3.33;;;2.83;;
8161;SDS011;16778;48.154;15.094;2023-05-16T13:30:50;3.83;;;3.03;;
8161;SDS011;16778;48.154;15.094;2023-05-16T13:33:16;4.10;;;2.87;;
8161;SDS011;16778;48.154;15.094;2023-05-16T13:35:45;4.03;;;2.57;;
8161;SDS011;16778;48.154;15.094;2023-05-16T13:38:10;3.67;;;3.00;;
8161;SDS011;16778;48.154;15.094;2023-05-16T13:40:36;3.67;;;2.70;;
8161;SDS011;16778;48.154;15.094;2023-05-16T13:43:02;3.80;;;3.00;;
8161;SDS011;16778;48.154;15.094;2023-05-16T13:45:27;5.00;;;3.33;;
8161;SDS011;16778;48.154;15.094;2023-05-16T13:47:53;4.10;;;2.57;;
8161;SDS011;16778;48.154;15.094;2023-05-16T13:50:19;4.47;;;3.00;;
8161;SDS011;16778;48.154;15.094;2023-05-16T13:52:45;4.07;;;3.00;;
8161;SDS011;16778;48.154;15.094;2023-05-16T13:55:12;5.90;;;3.00;;
8161;SDS011;16778;48.154;15.094;2023-05-16T13:57:38;5.13;;;2.97;;
8161;SDS011;16778;48.154;15.094;2023-05-16T14:00:04;4.27;;;2.90;;
8161;SDS011;16778;48.154;15.094;2023-05-16T14:02:36;3.10;;;2.63;;
8161;SDS011;16778;48.154;15.094;2023-05-16T14:05:05;3.93;;;2.87;;
8161;SDS011;16778;48.154;15.094;2023-05-16T14:07:31;3.30;;;2.50;;
8161;SDS011;16778;48.154;15.094;2023-05-16T14:09:57;2.57;;;2.07;;
8161;SDS011;16778;48.154;15.094;2023-05-16T14:12:22;2.53;;;1.83;;
8161;SDS011;16778;48.154;15.094;2023-05-16T14:14:48;2.70;;;2.13;;
8161;SDS011;16778;48.154;15.094;2023-05-16T14:17:14;6.90;;;2.77;;
8161;SDS011;16778;48.154;15.094;2023-05-16T14:19:40;3.50;;;2.60;;
8161;SDS011;16778;48.154;15.094;2023-05-16T14:22:05;3.97;;;2.93;;
8161;SDS011;16778;48.154;15.094;2023-05-16T14:24:32;3.17;;;2.53;;
8161;SDS011;16778;48.154;15.094;2023-05-16T14:26:57;3.47;;;2.63;;
8161;SDS011;16778;48.154;15.094;2023-05-16T14:29:24;4.13;;;2.33;;
8161;SDS011;16778;48.154;15.094;2023-05-16T14:31:50;3.00;;;2.50;;
8161;SDS011;16778;48.154;15.094;2023-05-16T14:34:15;3.30;;;2.43;;
8161;SDS011;16778;48.154;15.094;2023-05-16T14:36:41;4.07;;;2.60;;
8161;SDS011;16778;48.154;15.094;2023-05-16T14:39:07;2.23;;;1.87;;
8161;SDS011;16778;48.154;15.094;2023-05-16T14:41:33;2.47;;;2.13;;
8161;SDS011;16778;48.154;15.094;2023-05-16T14:43:59;3.53;;;2.77;;
8161;SDS011;16778;48.154;15.094;2023-05-16T14:46:24;2.53;;;2.07;;
8161;SDS011;16778;48.154;15.094;2023-05-16T14:48:50;3.43;;;2.40;;
8161;SDS011;16778;48.154;15.094;2023-05-16T14:51:16;2.83;;;2.07;;
8161;SDS011;16778;48.154;15.094;2023-05-16T14:53:42;3.57;;;2.20;;
8161;SDS011;16778;48.154;15.094;2023-05-16T14:56:07;2.40;;;2.20;;
8161;SDS011;16778;48.154;15.094;2023-05-16T14:58:33;5.07;;;2.20;;
8161;SDS011;16778;48.154;15.094;2023-05-16T15:00:58;2.43;;;2.23;;
8161;SDS011;16778;48.154;15.094;2023-05-16T15:03:24;3.00;;;2.10;;
8161;SDS011;16778;48.154;15.094;2023-05-16T15:05:50;2.53;;;2.03;;
8161;SDS011;16778;48.154;15.094;2023-05-16T15:08:16;2.83;;;2.17;;